sensor_id;sensor_type;location;lat;lon;timestamp;temperature;humidity
1704;DHT22;849;48.780;9.216;2023-08-17T00:00:30;23.40;99.90
1704;DHT22;849;48.780;9.216;2023-08-17T00:02:56;23.40;99.90
1704;DHT22;849;48.780;9.216;2023-08-17T00:05:22;23.40;99.90
1704;DHT22;849;48.780;9.216;2023-08-17T00:07:48;23.40;99.90
1704;DHT22;849;48.780;9.216;2023-08-17T00:10:13;23.40;99.90
1704;DHT22;849;48.780;9.216;2023-08-17T00:12:39;23.40;99.90
1704;DHT22;849;48.780;9.216;2023-08-17T00:15:06;23.50;99.90
1704;DHT22;849;48.780;9.216;2023-08-17T00:17:32;23.40;99.90
1704;DHT22;849;48.780;9.216;2023-08-17T00:19:57;23.40;99.90
1704;DHT22;849;48.780;9.216;2023-08-17T00:22:23;23.50;99.90
1704;DHT22;849;48.780;9.216;2023-08-17T00:24:49;23.40;99.90
1704;DHT22;849;48.780;9.216;2023-08-17T00:27:15;23.40;99.90
1704;DHT22;849;48.780;9.216;2023-08-17T00:29:41;23.40;99.90
1704;DHT22;849;48.780;9.216;2023-08-17T00:32:07;23.40;99.90
1704;DHT22;849;48.780;9.216;2023-08-17T00:34:33;23.40;99.90
1704;DHT22;849;48.780;9.216;2023-08-17T00:36:59;23.50;99.90
1704;DHT22;849;48.780;9.216;2023-08-17T00:39:25;23.50;99.90
1704;DHT22;849;48.780;9.216;2023-08-17T00:41:51;23.50;99.90
1704;DHT22;849;48.780;9.216;2023-08-17T00:44:17;23.50;99.90
1704;DHT22;849;48.780;9.216;2023-08-17T00:46:43;23.60;99.90
1704;DHT22;849;48.780;9.216;2023-08-17T00:49:10;23.60;99.90
1704;DHT22;849;48.780;9.216;2023-08-17T00:51:36;23.60;99.90
1704;DHT22;849;48.780;9.216;2023-08-17T00:54:02;23.60;99.90
1704;DHT22;849;48.780;9.216;2023-08-17T00:56:29;23.60;99.90
1704;DHT22;849;48.780;9.216;2023-08-17T00:58:56;23.60;99.90
1704;DHT22;849;48.780;9.216;2023-08-17T01:01:22;23.70;99.90
1704;DHT22;849;48.780;9.216;2023-08-17T01:03:48;23.60;99.90
1704;DHT22;849;48.780;9.216;2023-08-17T01:06:14;23.60;99.90
1704;DHT22;849;48.780;9.216;2023-08-17T01:08:42;23.70;99.90
1704;DHT22;849;48.780;9.216;2023-08-17T01:11:29;23.70;99.90
1704;DHT22;849;48.780;9.216;2023-08-17T01:16:56;23.70;99.90
1704;DHT22;849;48.780;9.216;2023-08-17T01:19:27;23.70;99.90
1704;DHT22;849;48.780;9.216;2023-08-17T01:22:01;23.70;99.90
1704;DHT22;849;48.780;9.216;2023-08-17T01:24:28;23.80;99.90
1704;DHT22;849;48.780;9.216;2023-08-17T01:26:54;23.80;99.90
1704;DHT22;849;48.780;9.216;2023-08-17T01:29:20;23.80;99.90
1704;DHT22;849;48.780;9.216;2023-08-17T01:32:09;23.90;99.90
1704;DHT22;849;48.780;9.216;2023-08-17T01:34:46;23.80;99.90
1704;DHT22;849;48.780;9.216;2023-08-17T01:37:18;23.80;99.90
1704;DHT22;849;48.780;9.216;2023-08-17T01:39:49;23.80;99.90
1704;DHT22;849;48.780;9.216;2023-08-17T01:42:17;23.80;99.90
1704;DHT22;849;48.780;9.216;2023-08-17T01:44:43;23.60;99.90
1704;DHT22;849;48.780;9.216;2023-08-17T01:47:09;23.60;99.90
1704;DHT22;849;48.780;9.216;2023-08-17T01:49:36;23.50;99.90
1704;DHT22;849;48.780;9.216;2023-08-17T01:52:02;23.50;99.90
1704;DHT22;849;48.780;9.216;2023-08-17T01:54:28;23.60;99.90
1704;DHT22;849;48.780;9.216;2023-08-17T01:56:54;23.60;99.90
1704;DHT22;849;48.780;9.216;2023-08-17T01:59:20;23.50;99.90
1704;DHT22;849;48.780;9.216;2023-08-17T02:01:45;23.60;99.90
1704;DHT22;849;48.780;9.216;2023-08-17T02:04:11;23.70;99.90
1704;DHT22;849;48.780;9.216;2023-08-17T02:06:37;23.80;99.90
1704;DHT22;849;48.780;9.216;2023-08-17T02:09:03;23.90;99.90
1704;DHT22;849;48.780;9.216;2023-08-17T02:11:29;23.90;99.90
1704;DHT22;849;48.780;9.216;2023-08-17T02:13:55;23.80;99.90
1704;DHT22;849;48.780;9.216;2023-08-17T02:16:21;23.70;99.90
1704;DHT22;849;48.780;9.216;2023-08-17T02:18:57;23.80;99.90
1704;DHT22;849;48.780;9.216;2023-08-17T02:21:33;23.70;99.90
1704;DHT22;849;48.780;9.216;2023-08-17T02:24:10;23.80;99.90
1704;DHT22;849;48.780;9.216;2023-08-17T02:26:47;23.80;99.90
1704;DHT22;849;48.780;9.216;2023-08-17T02:29:23;23.80;99.90
1704;DHT22;849;48.780;9.216;2023-08-17T02:32:00;23.90;99.90
1704;DHT22;849;48.780;9.216;2023-08-17T02:34:31;23.90;99.90
1704;DHT22;849;48.780;9.216;2023-08-17T02:37:01;23.80;99.90
1704;DHT22;849;48.780;9.216;2023-08-17T02:39:32;23.90;99.90
1704;DHT22;849;48.780;9.216;2023-08-17T02:42:03;23.90;99.90
1704;DHT22;849;48.780;9.216;2023-08-17T02:44:40;23.90;99.90
1704;DHT22;849;48.780;9.216;2023-08-17T02:47:11;23.90;99.90
1704;DHT22;849;48.780;9.216;2023-08-17T02:49:41;24.00;99.90
1704;DHT22;849;48.780;9.216;2023-08-17T02:52:12;24.00;99.90
1704;DHT22;849;48.780;9.216;2023-08-17T02:54:43;23.90;99.90
1704;DHT22;849;48.780;9.216;2023-08-17T02:57:14;24.00;99.90
1704;DHT22;849;48.780;9.216;2023-08-17T02:59:45;23.90;99.90
1704;DHT22;849;48.780;9.216;2023-08-17T03:02:15;23.90;99.90
1704;DHT22;849;48.780;9.216;2023-08-17T03:04:46;23.90;99.90
1704;DHT22;849;48.780;9.216;2023-08-17T03:07:17;23.90;99.90
1704;DHT22;849;48.780;9.216;2023-08-17T03:09:48;23.90;99.90
1704;DHT22;849;48.780;9.216;2023-08-17T03:12:18;23.80;99.90
1704;DHT22;849;48.780;9.216;2023-08-17T03:14:49;23.90;99.90
1704;DHT22;849;48.780;9.216;2023-08-17T03:17:20;23.80;99.90
1704;DHT22;849;48.780;9.216;2023-08-17T03:19:51;23.80;99.90
1704;DHT22;849;48.780;9.216;2023-08-17T03:22:21;23.80;99.90
1704;DHT22;849;48.780;9.216;2023-08-17T03:25:06;23.80;99.90
1704;DHT22;849;48.780;9.216;2023-08-17T03:27:37;23.80;99.90
1704;DHT22;849;48.780;9.216;2023-08-17T03:30:08;23.80;99.90
1704;DHT22;849;48.780;9.216;2023-08-17T03:32:39;23.80;99.90
1704;DHT22;849;48.780;9.216;2023-08-17T03:35:10;23.80;99.90
1704;DHT22;849;48.780;9.216;2023-08-17T03:37:40;23.80;99.90
1704;DHT22;849;48.780;9.216;2023-08-17T03:40:11;23.70;99.90
1704;DHT22;849;48.780;9.216;2023-08-17T03:42:42;23.80;99.90
1704;DHT22;849;48.780;9.216;2023-08-17T03:45:13;23.70;99.90
1704;DHT22;849;48.780;9.216;2023-08-17T03:47:44;23.70;99.90
1704;DHT22;849;48.780;9.216;2023-08-17T03:50:15;23.70;99.90
1704;DHT22;849;48.780;9.216;2023-08-17T03:52:45;23.80;99.90
1704;DHT22;849;48.780;9.216;2023-08-17T03:55:23;23.70;99.90
1704;DHT22;849;48.780;9.216;2023-08-17T03:57:54;23.70;99.90
1704;DHT22;849;48.780;9.216;2023-08-17T04:00:24;23.70;99.90
1704;DHT22;849;48.780;9.216;2023-08-17T04:02:55;23.70;99.90
1704;DHT22;849;48.780;9.216;2023-08-17T04:05:27;23.80;99.90
1704;DHT22;849;48.780;9.216;2023-08-17T04:08:00;23.70;99.90
1704;DHT22;849;48.780;9.216;2023-08-17T04:10:33;23.70;99.90
1704;DHT22;849;48.780;9.216;2023-08-17T04:13:03;23.70;99.90
1704;DHT22;849;48.780;9.216;2023-08-17T04:15:34;23.80;99.90
1704;DHT22;849;48.780;9.216;2023-08-17T04:18:05;23.80;99.90
1704;DHT22;849;48.780;9.216;2023-08-17T04:20:41;23.80;99.90
1704;DHT22;849;48.780;9.216;2023-08-17T04:23:12;23.70;99.90
1704;DHT22;849;48.780;9.216;2023-08-17T04:25:43;23.70;99.90
1704;DHT22;849;48.780;9.216;2023-08-17T04:28:14;23.70;99.90
1704;DHT22;849;48.780;9.216;2023-08-17T04:30:45;23.70;99.90
1704;DHT22;849;48.780;9.216;2023-08-17T04:33:16;23.80;99.90
1704;DHT22;849;48.780;9.216;2023-08-17T04:35:53;23.80;99.90
1704;DHT22;849;48.780;9.216;2023-08-17T04:38:24;23.80;99.90
1704;DHT22;849;48.780;9.216;2023-08-17T04:40:55;23.80;99.90
1704;DHT22;849;48.780;9.216;2023-08-17T04:43:26;23.80;99.90
1704;DHT22;849;48.780;9.216;2023-08-17T04:45:57;23.80;99.90
1704;DHT22;849;48.780;9.216;2023-08-17T04:48:28;23.80;99.90
1704;DHT22;849;48.780;9.216;2023-08-17T04:50:58;23.80;99.90
1704;DHT22;849;48.780;9.216;2023-08-17T04:53:29;23.90;99.90
1704;DHT22;849;48.780;9.216;2023-08-17T04:56:00;23.90;99.90
1704;DHT22;849;48.780;9.216;2023-08-17T04:58:31;23.80;99.90
1704;DHT22;849;48.780;9.216;2023-08-17T05:01:02;23.80;99.90
1704;DHT22;849;48.780;9.216;2023-08-17T05:03:33;23.80;99.90
1704;DHT22;849;48.780;9.216;2023-08-17T05:06:04;23.80;99.90
1704;DHT22;849;48.780;9.216;2023-08-17T05:08:34;23.80;99.90
1704;DHT22;849;48.780;9.216;2023-08-17T05:11:05;23.80;99.90
1704;DHT22;849;48.780;9.216;2023-08-17T05:13:36;23.90;99.90
1704;DHT22;849;48.780;9.216;2023-08-17T05:16:07;23.90;99.90
1704;DHT22;849;48.780;9.216;2023-08-17T05:18:38;23.80;99.90
1704;DHT22;849;48.780;9.216;2023-08-17T05:21:09;23.70;99.90
1704;DHT22;849;48.780;9.216;2023-08-17T05:23:39;23.80;99.90
1704;DHT22;849;48.780;9.216;2023-08-17T05:26:17;23.80;99.90
1704;DHT22;849;48.780;9.216;2023-08-17T05:28:48;23.70;99.90
1704;DHT22;849;48.780;9.216;2023-08-17T05:31:19;23.70;99.90
1704;DHT22;849;48.780;9.216;2023-08-17T05:33:49;23.60;99.90
1704;DHT22;849;48.780;9.216;2023-08-17T05:36:20;23.60;99.90
1704;DHT22;849;48.780;9.216;2023-08-17T05:38:51;23.70;99.90
1704;DHT22;849;48.780;9.216;2023-08-17T05:41:22;23.80;99.90
1704;DHT22;849;48.780;9.216;2023-08-17T05:43:52;23.90;99.90
1704;DHT22;849;48.780;9.216;2023-08-17T05:46:23;24.00;99.90
1704;DHT22;849;48.780;9.216;2023-08-17T05:48:54;24.00;99.90
1704;DHT22;849;48.780;9.216;2023-08-17T05:51:25;23.70;99.90
1704;DHT22;849;48.780;9.216;2023-08-17T05:53:56;23.60;99.90
1704;DHT22;849;48.780;9.216;2023-08-17T05:56:27;23.60;99.90
1704;DHT22;849;48.780;9.216;2023-08-17T05:58:58;23.70;99.90
1704;DHT22;849;48.780;9.216;2023-08-17T06:01:35;23.70;99.90
1704;DHT22;849;48.780;9.216;2023-08-17T06:04:12;23.90;99.90
1704;DHT22;849;48.780;9.216;2023-08-17T06:06:42;23.90;99.90
1704;DHT22;849;48.780;9.216;2023-08-17T06:09:13;24.00;99.90
1704;DHT22;849;48.780;9.216;2023-08-17T06:11:45;24.10;99.90
1704;DHT22;849;48.780;9.216;2023-08-17T06:14:21;24.20;99.90
1704;DHT22;849;48.780;9.216;2023-08-17T06:16:52;24.10;99.90
1704;DHT22;849;48.780;9.216;2023-08-17T06:19:23;24.20;99.90
1704;DHT22;849;48.780;9.216;2023-08-17T06:21:54;24.30;99.90
1704;DHT22;849;48.780;9.216;2023-08-17T06:24:30;24.30;99.90
1704;DHT22;849;48.780;9.216;2023-08-17T06:27:07;24.30;99.90
1704;DHT22;849;48.780;9.216;2023-08-17T06:29:44;24.30;99.90
1704;DHT22;849;48.780;9.216;2023-08-17T06:32:14;24.20;99.90
1704;DHT22;849;48.780;9.216;2023-08-17T06:34:45;24.30;99.90
1704;DHT22;849;48.780;9.216;2023-08-17T06:37:16;24.20;99.90
1704;DHT22;849;48.780;9.216;2023-08-17T06:39:53;24.30;99.90
1704;DHT22;849;48.780;9.216;2023-08-17T06:42:24;24.40;99.90
1704;DHT22;849;48.780;9.216;2023-08-17T06:44:55;24.40;99.90
1704;DHT22;849;48.780;9.216;2023-08-17T06:47:25;24.40;99.90
1704;DHT22;849;48.780;9.216;2023-08-17T06:49:56;24.60;99.90
1704;DHT22;849;48.780;9.216;2023-08-17T06:52:28;24.50;99.90
1704;DHT22;849;48.780;9.216;2023-08-17T06:54:59;24.40;99.90
1704;DHT22;849;48.780;9.216;2023-08-17T06:57:29;24.60;99.90
1704;DHT22;849;48.780;9.216;2023-08-17T07:00:00;24.60;99.90
1704;DHT22;849;48.780;9.216;2023-08-17T07:02:38;24.50;99.90
1704;DHT22;849;48.780;9.216;2023-08-17T07:05:08;24.60;99.90
1704;DHT22;849;48.780;9.216;2023-08-17T07:07:41;24.60;99.90
1704;DHT22;849;48.780;9.216;2023-08-17T07:10:13;24.70;99.90
1704;DHT22;849;48.780;9.216;2023-08-17T07:12:43;24.60;99.90
1704;DHT22;849;48.780;9.216;2023-08-17T07:15:14;24.70;99.90
1704;DHT22;849;48.780;9.216;2023-08-17T07:17:45;24.70;99.90
1704;DHT22;849;48.780;9.216;2023-08-17T07:20:16;24.80;99.90
1704;DHT22;849;48.780;9.216;2023-08-17T07:22:47;24.80;99.90
1704;DHT22;849;48.780;9.216;2023-08-17T07:25:18;24.80;99.90
1704;DHT22;849;48.780;9.216;2023-08-17T07:27:49;24.60;99.90
1704;DHT22;849;48.780;9.216;2023-08-17T07:30:20;24.60;99.90
1704;DHT22;849;48.780;9.216;2023-08-17T07:32:51;24.60;99.90
1704;DHT22;849;48.780;9.216;2023-08-17T07:35:21;24.70;99.90
1704;DHT22;849;48.780;9.216;2023-08-17T07:37:52;24.70;99.90
1704;DHT22;849;48.780;9.216;2023-08-17T07:40:23;24.60;99.90
1704;DHT22;849;48.780;9.216;2023-08-17T07:42:54;24.40;99.90
1704;DHT22;849;48.780;9.216;2023-08-17T07:45:25;24.30;99.90
1704;DHT22;849;48.780;9.216;2023-08-17T07:47:55;24.30;99.90
1704;DHT22;849;48.780;9.216;2023-08-17T07:50:26;24.40;99.90
1704;DHT22;849;48.780;9.216;2023-08-17T07:52:57;24.40;99.90
1704;DHT22;849;48.780;9.216;2023-08-17T07:55:28;24.50;99.90
1704;DHT22;849;48.780;9.216;2023-08-17T07:57:59;24.60;99.90
1704;DHT22;849;48.780;9.216;2023-08-17T08:00:29;24.50;99.90
1704;DHT22;849;48.780;9.216;2023-08-17T08:03:00;24.60;99.90
1704;DHT22;849;48.780;9.216;2023-08-17T08:05:31;24.50;99.90
1704;DHT22;849;48.780;9.216;2023-08-17T08:08:02;24.40;99.90
1704;DHT22;849;48.780;9.216;2023-08-17T08:10:33;24.50;99.90
1704;DHT22;849;48.780;9.216;2023-08-17T08:13:04;24.40;99.90
1704;DHT22;849;48.780;9.216;2023-08-17T08:15:35;24.40;99.90
1704;DHT22;849;48.780;9.216;2023-08-17T08:18:12;24.40;99.90
1704;DHT22;849;48.780;9.216;2023-08-17T08:20:43;24.40;99.90
1704;DHT22;849;48.780;9.216;2023-08-17T08:23:14;24.40;99.90
1704;DHT22;849;48.780;9.216;2023-08-17T08:25:45;24.40;99.90
1704;DHT22;849;48.780;9.216;2023-08-17T08:28:15;24.50;99.90
1704;DHT22;849;48.780;9.216;2023-08-17T08:30:46;24.60;99.90
1704;DHT22;849;48.780;9.216;2023-08-17T08:33:17;24.70;99.90
1704;DHT22;849;48.780;9.216;2023-08-17T08:35:48;24.80;99.90
1704;DHT22;849;48.780;9.216;2023-08-17T08:38:19;24.80;99.90
1704;DHT22;849;48.780;9.216;2023-08-17T08:40:50;24.90;99.90
1704;DHT22;849;48.780;9.216;2023-08-17T08:43:21;24.80;99.90
1704;DHT22;849;48.780;9.216;2023-08-17T08:45:52;24.90;99.90
1704;DHT22;849;48.780;9.216;2023-08-17T08:48:32;25.10;99.90
1704;DHT22;849;48.780;9.216;2023-08-17T08:51:07;25.00;99.90
1704;DHT22;849;48.780;9.216;2023-08-17T08:53:44;25.00;99.90
1704;DHT22;849;48.780;9.216;2023-08-17T08:56:15;25.10;99.90
1704;DHT22;849;48.780;9.216;2023-08-17T08:58:48;25.20;99.90
1704;DHT22;849;48.780;9.216;2023-08-17T09:01:19;25.20;99.90
1704;DHT22;849;48.780;9.216;2023-08-17T09:03:50;25.10;99.90
1704;DHT22;849;48.780;9.216;2023-08-17T09:06:23;25.30;99.90
1704;DHT22;849;48.780;9.216;2023-08-17T09:08:57;25.30;99.90
1704;DHT22;849;48.780;9.216;2023-08-17T09:11:28;25.30;99.90
1704;DHT22;849;48.780;9.216;2023-08-17T09:14:07;25.50;99.90
1704;DHT22;849;48.780;9.216;2023-08-17T09:16:38;25.60;99.90
1704;DHT22;849;48.780;9.216;2023-08-17T09:19:10;25.50;99.90
1704;DHT22;849;48.780;9.216;2023-08-17T09:21:41;25.50;99.90
1704;DHT22;849;48.780;9.216;2023-08-17T09:24:12;25.50;99.90
1704;DHT22;849;48.780;9.216;2023-08-17T09:26:43;25.50;99.90
1704;DHT22;849;48.780;9.216;2023-08-17T09:29:21;25.50;99.90
1704;DHT22;849;48.780;9.216;2023-08-17T09:31:52;25.60;99.90
1704;DHT22;849;48.780;9.216;2023-08-17T09:34:22;25.60;99.90
1704;DHT22;849;48.780;9.216;2023-08-17T09:36:53;25.70;99.90
1704;DHT22;849;48.780;9.216;2023-08-17T09:39:25;25.80;99.90
1704;DHT22;849;48.780;9.216;2023-08-17T09:41:55;25.80;99.90
1704;DHT22;849;48.780;9.216;2023-08-17T09:44:27;25.80;99.90
1704;DHT22;849;48.780;9.216;2023-08-17T09:46:58;25.70;99.90
1704;DHT22;849;48.780;9.216;2023-08-17T09:49:33;25.80;99.90
1704;DHT22;849;48.780;9.216;2023-08-17T09:52:04;25.90;99.90
1704;DHT22;849;48.780;9.216;2023-08-17T09:54:35;26.00;99.90
1704;DHT22;849;48.780;9.216;2023-08-17T09:57:06;26.00;99.90
1704;DHT22;849;48.780;9.216;2023-08-17T09:59:37;26.10;99.90
1704;DHT22;849;48.780;9.216;2023-08-17T10:02:18;26.20;99.90
1704;DHT22;849;48.780;9.216;2023-08-17T10:04:53;26.10;99.90
1704;DHT22;849;48.780;9.216;2023-08-17T10:07:29;26.10;99.90
1704;DHT22;849;48.780;9.216;2023-08-17T10:10:04;26.10;99.90
1704;DHT22;849;48.780;9.216;2023-08-17T10:12:44;26.10;99.90
1704;DHT22;849;48.780;9.216;2023-08-17T10:15:18;26.20;99.90
1704;DHT22;849;48.780;9.216;2023-08-17T10:17:58;26.10;99.90
1704;DHT22;849;48.780;9.216;2023-08-17T10:20:30;25.90;99.90
1704;DHT22;849;48.780;9.216;2023-08-17T10:23:12;25.80;99.90
1704;DHT22;849;48.780;9.216;2023-08-17T10:25:45;26.00;99.90
1704;DHT22;849;48.780;9.216;2023-08-17T10:28:18;26.00;99.90
1704;DHT22;849;48.780;9.216;2023-08-17T10:30:49;26.20;99.90
1704;DHT22;849;48.780;9.216;2023-08-17T10:33:21;26.50;99.90
1704;DHT22;849;48.780;9.216;2023-08-17T10:35:54;26.50;99.90
1704;DHT22;849;48.780;9.216;2023-08-17T10:38:25;26.60;99.90
1704;DHT22;849;48.780;9.216;2023-08-17T10:41:15;26.80;99.90
1704;DHT22;849;48.780;9.216;2023-08-17T10:43:56;27.00;99.90
1704;DHT22;849;48.780;9.216;2023-08-17T10:46:35;27.10;99.90
1704;DHT22;849;48.780;9.216;2023-08-17T10:49:07;27.20;99.90
1704;DHT22;849;48.780;9.216;2023-08-17T10:52:05;27.10;99.90
1704;DHT22;849;48.780;9.216;2023-08-17T10:54:41;27.20;99.90
1704;DHT22;849;48.780;9.216;2023-08-17T11:02:44;26.90;99.90
1704;DHT22;849;48.780;9.216;2023-08-17T11:11:12;26.90;99.90
1704;DHT22;849;48.780;9.216;2023-08-17T11:13:45;27.10;99.90
1704;DHT22;849;48.780;9.216;2023-08-17T11:16:17;27.10;99.90
1704;DHT22;849;48.780;9.216;2023-08-17T11:18:49;27.10;99.90
1704;DHT22;849;48.780;9.216;2023-08-17T11:21:24;27.10;99.90
1704;DHT22;849;48.780;9.216;2023-08-17T11:23:56;27.30;99.90
1704;DHT22;849;48.780;9.216;2023-08-17T11:26:27;27.50;99.90
1704;DHT22;849;48.780;9.216;2023-08-17T11:28:58;27.60;99.90
1704;DHT22;849;48.780;9.216;2023-08-17T11:31:31;27.80;99.90
1704;DHT22;849;48.780;9.216;2023-08-17T11:34:02;27.90;99.90
1704;DHT22;849;48.780;9.216;2023-08-17T11:36:33;27.80;99.90
1704;DHT22;849;48.780;9.216;2023-08-17T11:39:04;27.80;99.90
1704;DHT22;849;48.780;9.216;2023-08-17T11:41:35;27.60;99.90
1704;DHT22;849;48.780;9.216;2023-08-17T11:44:06;27.80;99.90
1704;DHT22;849;48.780;9.216;2023-08-17T11:46:38;27.70;99.90
1704;DHT22;849;48.780;9.216;2023-08-17T11:49:08;27.90;99.90
1704;DHT22;849;48.780;9.216;2023-08-17T11:51:39;27.90;99.90
1704;DHT22;849;48.780;9.216;2023-08-17T11:54:14;28.00;99.90
1704;DHT22;849;48.780;9.216;2023-08-17T11:56:44;28.10;99.90
1704;DHT22;849;48.780;9.216;2023-08-17T11:59:15;28.20;99.90
1704;DHT22;849;48.780;9.216;2023-08-17T12:01:49;28.30;99.90
1704;DHT22;849;48.780;9.216;2023-08-17T12:04:24;28.40;99.90
1704;DHT22;849;48.780;9.216;2023-08-17T12:06:55;28.40;99.90
1704;DHT22;849;48.780;9.216;2023-08-17T12:09:26;28.40;99.90
1704;DHT22;849;48.780;9.216;2023-08-17T12:12:01;28.60;99.90
1704;DHT22;849;48.780;9.216;2023-08-17T12:14:42;28.60;99.90
1704;DHT22;849;48.780;9.216;2023-08-17T12:17:14;28.70;99.90
1704;DHT22;849;48.780;9.216;2023-08-17T12:19:53;28.70;99.90
1704;DHT22;849;48.780;9.216;2023-08-17T12:22:25;28.70;99.90
1704;DHT22;849;48.780;9.216;2023-08-17T12:25:02;28.80;99.90
1704;DHT22;849;48.780;9.216;2023-08-17T12:27:34;28.80;99.90
1704;DHT22;849;48.780;9.216;2023-08-17T12:30:11;28.70;99.90
1704;DHT22;849;48.780;9.216;2023-08-17T12:32:42;28.60;99.90
1704;DHT22;849;48.780;9.216;2023-08-17T12:35:13;28.60;99.90
1704;DHT22;849;48.780;9.216;2023-08-17T12:37:44;28.60;99.90
1704;DHT22;849;48.780;9.216;2023-08-17T12:40:15;28.70;99.90
1704;DHT22;849;48.780;9.216;2023-08-17T12:42:46;28.80;99.90
1704;DHT22;849;48.780;9.216;2023-08-17T12:45:17;28.80;99.90
1704;DHT22;849;48.780;9.216;2023-08-17T12:47:47;28.80;99.90
1704;DHT22;849;48.780;9.216;2023-08-17T12:50:18;28.60;99.90
1704;DHT22;849;48.780;9.216;2023-08-17T12:52:49;28.10;99.90
1704;DHT22;849;48.780;9.216;2023-08-17T12:55:20;28.10;99.90
1704;DHT22;849;48.780;9.216;2023-08-17T12:57:51;28.00;99.90
1704;DHT22;849;48.780;9.216;2023-08-17T13:00:21;28.20;99.90
1704;DHT22;849;48.780;9.216;2023-08-17T13:02:52;28.10;99.90
1704;DHT22;849;48.780;9.216;2023-08-17T13:05:23;27.80;99.90
1704;DHT22;849;48.780;9.216;2023-08-17T13:08:00;27.60;99.90
1704;DHT22;849;48.780;9.216;2023-08-17T13:10:30;27.60;99.90
1704;DHT22;849;48.780;9.216;2023-08-17T13:13:01;27.70;99.90
1704;DHT22;849;48.780;9.216;2023-08-17T13:15:39;28.00;99.90
1704;DHT22;849;48.780;9.216;2023-08-17T13:18:09;28.10;99.90
1704;DHT22;849;48.780;9.216;2023-08-17T13:20:47;28.10;99.90
1704;DHT22;849;48.780;9.216;2023-08-17T13:23:18;27.70;99.90
1704;DHT22;849;48.780;9.216;2023-08-17T13:25:49;27.50;99.90
1704;DHT22;849;48.780;9.216;2023-08-17T13:28:20;27.60;99.90
1704;DHT22;849;48.780;9.216;2023-08-17T13:30:50;27.70;99.90
1704;DHT22;849;48.780;9.216;2023-08-17T13:33:21;27.70;99.90
1704;DHT22;849;48.780;9.216;2023-08-17T13:35:52;27.60;99.90
1704;DHT22;849;48.780;9.216;2023-08-17T13:38:23;27.30;99.90
1704;DHT22;849;48.780;9.216;2023-08-17T13:40:54;27.30;99.90
1704;DHT22;849;48.780;9.216;2023-08-17T13:43:30;27.30;99.90
1704;DHT22;849;48.780;9.216;2023-08-17T13:46:01;27.30;99.90
1704;DHT22;849;48.780;9.216;2023-08-17T13:48:32;27.10;99.90
1704;DHT22;849;48.780;9.216;2023-08-17T13:51:03;26.90;99.90
1704;DHT22;849;48.780;9.216;2023-08-17T13:53:34;26.70;99.90
1704;DHT22;849;48.780;9.216;2023-08-17T13:56:04;26.80;99.90
1704;DHT22;849;48.780;9.216;2023-08-17T13:58:35;26.80;99.90
1704;DHT22;849;48.780;9.216;2023-08-17T14:01:06;26.70;99.90
1704;DHT22;849;48.780;9.216;2023-08-17T14:03:37;26.70;99.90
1704;DHT22;849;48.780;9.216;2023-08-17T14:06:08;26.60;99.90
1704;DHT22;849;48.780;9.216;2023-08-17T14:08:39;26.70;99.90
1704;DHT22;849;48.780;9.216;2023-08-17T14:11:10;26.60;99.90
1704;DHT22;849;48.780;9.216;2023-08-17T14:13:41;26.60;99.90
1704;DHT22;849;48.780;9.216;2023-08-17T14:16:18;26.50;99.90
1704;DHT22;849;48.780;9.216;2023-08-17T14:18:49;26.20;99.90
1704;DHT22;849;48.780;9.216;2023-08-17T14:21:20;26.30;99.90
1704;DHT22;849;48.780;9.216;2023-08-17T14:23:50;26.30;99.90
1704;DHT22;849;48.780;9.216;2023-08-17T14:26:21;26.20;99.90
1704;DHT22;849;48.780;9.216;2023-08-17T14:28:52;26.40;99.90
1704;DHT22;849;48.780;9.216;2023-08-17T14:31:23;26.70;99.90
1704;DHT22;849;48.780;9.216;2023-08-17T14:34:02;26.40;99.90
1704;DHT22;849;48.780;9.216;2023-08-17T14:36:33;26.20;99.90
1704;DHT22;849;48.780;9.216;2023-08-17T14:39:04;26.20;99.90
1704;DHT22;849;48.780;9.216;2023-08-17T14:41:35;26.20;99.90
1704;DHT22;849;48.780;9.216;2023-08-17T14:44:06;26.00;99.90
1704;DHT22;849;48.780;9.216;2023-08-17T14:46:37;26.10;99.90
1704;DHT22;849;48.780;9.216;2023-08-17T14:49:09;26.40;99.90
1704;DHT22;849;48.780;9.216;2023-08-17T14:51:41;26.50;99.90
1704;DHT22;849;48.780;9.216;2023-08-17T14:54:11;26.50;99.90
1704;DHT22;849;48.780;9.216;2023-08-17T14:56:42;26.60;99.90
1704;DHT22;849;48.780;9.216;2023-08-17T14:59:13;26.70;99.90
1704;DHT22;849;48.780;9.216;2023-08-17T15:01:44;26.90;99.90
1704;DHT22;849;48.780;9.216;2023-08-17T15:04:15;26.80;99.90
1704;DHT22;849;48.780;9.216;2023-08-17T15:06:46;26.90;99.90
1704;DHT22;849;48.780;9.216;2023-08-17T15:09:16;27.10;99.90
1704;DHT22;849;48.780;9.216;2023-08-17T15:11:47;27.30;99.90
1704;DHT22;849;48.780;9.216;2023-08-17T15:14:20;27.40;99.90
1704;DHT22;849;48.780;9.216;2023-08-17T15:16:51;27.50;99.90
1704;DHT22;849;48.780;9.216;2023-08-17T15:19:22;27.50;99.90
1704;DHT22;849;48.780;9.216;2023-08-17T15:21:53;27.60;99.90
1704;DHT22;849;48.780;9.216;2023-08-17T15:24:23;27.70;99.90
1704;DHT22;849;48.780;9.216;2023-08-17T15:27:01;27.80;99.90
1704;DHT22;849;48.780;9.216;2023-08-17T15:29:32;27.80;99.90
1704;DHT22;849;48.780;9.216;2023-08-17T15:32:02;27.70;99.90
1704;DHT22;849;48.780;9.216;2023-08-17T15:34:33;27.70;99.90
1704;DHT22;849;48.780;9.216;2023-08-17T15:37:06;27.80;99.90
1704;DHT22;849;48.780;9.216;2023-08-17T15:39:36;28.10;99.90
1704;DHT22;849;48.780;9.216;2023-08-17T15:42:07;28.30;99.90
1704;DHT22;849;48.780;9.216;2023-08-17T15:44:38;28.50;99.90
1704;DHT22;849;48.780;9.216;2023-08-17T15:47:15;28.40;99.90
1704;DHT22;849;48.780;9.216;2023-08-17T15:49:46;28.30;99.90
1704;DHT22;849;48.780;9.216;2023-08-17T15:52:17;28.20;99.90
1704;DHT22;849;48.780;9.216;2023-08-17T15:54:47;28.20;99.90
1704;DHT22;849;48.780;9.216;2023-08-17T15:57:25;27.90;99.90
1704;DHT22;849;48.780;9.216;2023-08-17T15:59:55;28.10;99.90
1704;DHT22;849;48.780;9.216;2023-08-17T16:02:26;28.20;99.90
1704;DHT22;849;48.780;9.216;2023-08-17T16:04:57;28.30;99.90
1704;DHT22;849;48.780;9.216;2023-08-17T16:07:27;28.40;99.90
1704;DHT22;849;48.780;9.216;2023-08-17T16:09:58;28.40;99.90
1704;DHT22;849;48.780;9.216;2023-08-17T16:12:29;28.40;99.90
1704;DHT22;849;48.780;9.216;2023-08-17T16:15:00;28.50;99.90
1704;DHT22;849;48.780;9.216;2023-08-17T16:17:31;28.50;99.90
1704;DHT22;849;48.780;9.216;2023-08-17T16:20:01;28.50;99.90
1704;DHT22;849;48.780;9.216;2023-08-17T16:22:32;28.50;99.90
1704;DHT22;849;48.780;9.216;2023-08-17T16:25:04;28.50;99.90
1704;DHT22;849;48.780;9.216;2023-08-17T16:27:34;28.50;99.90
1704;DHT22;849;48.780;9.216;2023-08-17T16:30:06;28.50;99.90
1704;DHT22;849;48.780;9.216;2023-08-17T16:32:37;28.50;99.90
1704;DHT22;849;48.780;9.216;2023-08-17T16:35:08;28.50;99.90
1704;DHT22;849;48.780;9.216;2023-08-17T16:37:39;28.50;99.90
1704;DHT22;849;48.780;9.216;2023-08-17T16:40:09;28.50;99.90
1704;DHT22;849;48.780;9.216;2023-08-17T16:42:40;28.50;99.90
1704;DHT22;849;48.780;9.216;2023-08-17T16:45:18;28.50;99.90
1704;DHT22;849;48.780;9.216;2023-08-17T16:47:49;28.50;99.90
1704;DHT22;849;48.780;9.216;2023-08-17T16:50:20;28.40;99.90
1704;DHT22;849;48.780;9.216;2023-08-17T16:52:51;28.60;99.90
1704;DHT22;849;48.780;9.216;2023-08-17T16:55:22;28.70;99.90
1704;DHT22;849;48.780;9.216;2023-08-17T16:57:53;28.80;99.90